Time;durP1;ratioP1;P1;durP2;ratioP2;P2;SDS_P1;SDS_P2;PMS_P1;PMS_P2;Temp;Humidity;BMP_temperature;BMP_pressure;BME280_temperature;BME280_humidity;BME280_pressure;Samples;Min_cycle;Max_cycle;Signal;HPM_P1;HPM_P2
2022/08/09 00:07:42;;;;;;;0.98;0.70;;;;;;;19.01;87.47;102544.88;21041260;28;20048;-80
2022/08/09 00:17:45;;;;;;;1.17;0.90;;;;;;;18.99;87.52;102528.78;21042217;28;20500;-79
2022/08/09 00:28:07;;;;;;;0.82;0.80;;;;;;;18.88;87.43;102507.88;21039962;28;20105;-80
2022/08/09 00:38:11;;;;;;;1.00;0.90;;;;;;;18.96;87.12;102521.69;21048003;28;20044;-80
2022/08/09 00:48:13;;;;;;;0.68;0.63;;;;;;;18.89;87.18;102515.00;21040452;28;20052;-79
2022/08/09 00:58:19;;;;;;;0.63;0.60;;;;;;;18.90;86.88;102521.28;21053440;28;20136;-79
2022/08/09 01:08:39;;;;;;;1.30;0.70;;;;;;;18.90;86.84;102527.50;21055004;28;20063;-79
2022/08/09 01:18:52;;;;;;;0.68;0.68;;;;;;;18.96;87.04;102539.75;21051988;28;20040;-79
2022/08/09 01:29:09;;;;;;;0.95;0.70;;;;;;;18.94;87.00;102539.84;21035637;28;20051;-80
2022/08/09 01:39:16;;;;;;;0.70;0.70;;;;;;;18.94;86.87;102550.63;21034635;28;20039;-79
2022/08/09 01:49:19;;;;;;;1.30;0.80;;;;;;;18.94;86.70;102549.78;21029376;28;20048;-79
2022/08/09 01:59:26;;;;;;;0.70;0.70;;;;;;;18.93;86.61;102548.91;21048875;28;20630;-79
2022/08/09 02:09:35;;;;;;;0.70;0.70;;;;;;;18.92;86.33;102557.97;21048868;28;20123;-79
2022/08/09 02:19:43;;;;;;;0.65;0.50;;;;;;;18.91;86.39;102552.69;21046122;28;20052;-79
2022/08/09 02:29:49;;;;;;;0.50;0.50;;;;;;;18.91;86.09;102556.22;21046658;28;20078;-79
2022/08/09 02:39:58;;;;;;;0.70;0.70;;;;;;;18.90;86.13;102557.19;21045896;28;20048;-79
2022/08/09 02:50:06;;;;;;;0.68;0.60;;;;;;;18.90;85.84;102543.72;21018100;28;20105;-79
2022/08/09 03:00:09;;;;;;;1.33;0.60;;;;;;;18.58;85.65;102497.31;21044180;28;20105;-79
2022/08/09 03:10:26;;;;;;;0.73;0.73;;;;;;;18.74;85.58;102513.34;21044665;28;20496;-79
2022/08/09 03:20:28;;;;;;;1.17;1.00;;;;;;;18.74;85.53;102510.63;20921355;28;20182;-77
2022/08/09 03:30:31;;;;;;;2.47;0.80;;;;;;;18.95;86.34;102536.16;20899289;28;20044;-80
2022/08/09 03:40:35;;;;;;;1.23;0.60;;;;;;;18.91;86.40;102520.31;20890190;28;20498;-81
2022/08/09 03:50:41;;;;;;;0.65;0.50;;;;;;;18.99;86.32;102526.91;20885318;28;20144;-83
2022/08/09 04:00:43;;;;;;;1.27;0.60;;;;;;;18.83;85.91;102516.28;20949217;28;20534;-80
2022/08/09 04:10:45;;;;;;;0.77;0.70;;;;;;;18.60;85.12;102471.97;20959907;28;20052;-80
2022/08/09 04:20:50;;;;;;;0.50;0.50;;;;;;;19.02;84.48;102546.59;20973751;28;20047;-79
2022/08/09 04:30:52;;;;;;;0.60;0.60;;;;;;;19.02;84.34;102549.31;20977747;28;20078;-80
2022/08/09 04:40:53;;;;;;;0.80;0.75;;;;;;;19.02;83.91;102562.81;20961557;28;20045;-80
2022/08/09 04:50:57;;;;;;;3.47;0.82;;;;;;;19.03;83.56;102567.22;21057139;28;20044;-80
2022/08/09 05:01:00;;;;;;;0.43;0.43;;;;;;;18.84;83.10;102542.31;21050476;28;20054;-80
2022/08/09 05:11:03;;;;;;;2.25;0.57;;;;;;;18.96;83.09;102569.44;20949364;28;20049;-80
2022/08/09 05:21:08;;;;;;;1.02;0.50;;;;;;;18.90;82.44;102565.28;20944427;28;20056;-80
2022/08/09 05:31:23;;;;;;;0.32;0.32;;;;;;;18.96;82.59;102580.22;20923275;28;20337;-80
2022/08/09 05:41:45;;;;;;;1.42;0.50;;;;;;;18.66;82.53;102539.00;20917310;28;20048;-83
2022/08/09 05:51:46;;;;;;;0.60;0.60;;;;;;;19.04;82.89;102604.06;20932063;28;20052;-83
2022/08/09 06:01:50;;;;;;;1.17;0.50;;;;;;;18.93;82.95;102581.28;20942129;28;20044;-83
2022/08/09 06:11:59;;;;;;;0.45;0.45;;;;;;;19.04;83.04;102615.69;20904652;28;20057;-82
2022/08/09 06:22:02;;;;;;;0.60;0.60;;;;;;;19.01;83.26;102615.06;20943848;28;20063;-82
2022/08/09 06:32:04;;;;;;;0.45;0.45;;;;;;;19.06;83.48;102629.09;20905106;28;20048;-82
2022/08/09 06:42:26;;;;;;;0.40;0.40;;;;;;;19.05;83.74;102644.41;20905586;28;20047;-83
2022/08/09 06:52:29;;;;;;;0.40;0.40;;;;;;;18.98;84.14;102638.53;20912013;28;20048;-79
2022/08/09 07:02:32;;;;;;;0.80;0.45;;;;;;;18.92;84.65;102649.72;20911352;28;20060;-80
2022/08/09 07:12:36;;;;;;;0.65;0.50;;;;;;;18.98;85.12;102654.75;20911710;28;20040;-80
2022/08/09 07:22:41;;;;;;;1.45;0.75;;;;;;;18.82;85.73;102641.38;20909522;28;20132;-80
2022/08/09 07:32:53;;;;;;;1.17;0.60;;;;;;;18.96;85.82;102659.34;20905069;28;20057;-80
2022/08/09 07:42:58;;;;;;;0.55;0.52;;;;;;;19.06;86.13;102672.28;20927319;28;20412;-81
2022/08/09 07:52:59;;;;;;;1.40;0.68;;;;;;;18.92;86.45;102654.25;20915936;28;20049;-80
2022/08/09 08:03:05;;;;;;;0.70;0.60;;;;;;;19.05;86.47;102665.16;20948340;28;20075;-80
2022/08/09 08:13:10;;;;;;;1.55;0.57;;;;;;;19.05;86.86;102662.47;20941116;28;20051;-81
2022/08/09 08:23:16;;;;;;;0.90;0.50;;;;;;;19.07;86.74;102668.63;20948269;28;20148;-81
2022/08/09 08:33:18;;;;;;;1.05;0.55;;;;;;;18.81;86.96;102622.56;20956080;28;20408;-81
2022/08/09 08:43:26;;;;;;;0.95;0.65;;;;;;;19.09;87.07;102682.88;20947084;28;20049;-81
2022/08/09 08:53:28;;;;;;;1.77;0.70;;;;;;;19.11;86.79;102668.31;20933957;28;20056;-81
2022/08/09 09:03:37;;;;;;;0.50;0.50;;;;;;;18.93;86.88;102640.66;20897905;28;20490;-81
2022/08/09 09:13:40;;;;;;;0.70;0.70;;;;;;;19.16;86.97;102661.72;20944999;28;20048;-81
2022/08/09 09:24:05;;;;;;;1.23;0.60;;;;;;;19.15;87.06;102666.28;20927571;28;20059;-81
2022/08/09 09:34:22;;;;;;;1.40;0.70;;;;;;;19.04;86.90;102637.28;20923910;28;20048;-81
2022/08/09 09:44:31;;;;;;;0.57;0.57;;;;;;;19.02;86.87;102643.78;20942315;28;20044;-81
2022/08/09 09:54:37;;;;;;;0.70;0.70;;;;;;;19.12;86.95;102664.63;20922812;28;20455;-81
2022/08/09 10:04:39;;;;;;;0.53;0.50;;;;;;;19.12;86.81;102666.47;20918618;28;20642;-81
2022/08/09 10:14:41;;;;;;;0.63;0.50;;;;;;;19.12;86.86;102655.69;20917293;28;20168;-80
2022/08/09 10:24:48;;;;;;;0.70;0.57;;;;;;;19.12;86.95;102642.19;20935409;28;20052;-81
2022/08/09 10:34:50;;;;;;;0.68;0.60;;;;;;;18.95;86.95;102619.81;20938128;28;20049;-81
2022/08/09 10:44:58;;;;;;;0.60;0.52;;;;;;;19.03;86.89;102634.72;20930225;28;20087;-81
2022/08/09 10:55:19;;;;;;;2.20;0.70;;;;;;;19.05;86.85;102628.22;20938071;28;20047;-81
2022/08/09 11:05:21;;;;;;;0.70;0.57;;;;;;;18.93;86.83;102608.28;20920848;28;20558;-80
2022/08/09 11:15:30;;;;;;;0.80;0.80;;;;;;;19.10;86.82;102636.03;20920887;28;20052;-80
2022/08/09 11:25:36;;;;;;;0.43;0.40;;;;;;;18.93;86.57;102586.69;20916598;28;20405;-81
2022/08/09 11:35:59;;;;;;;0.57;0.57;;;;;;;19.10;86.72;102609.03;20910816;28;20056;-80
2022/08/09 11:46:03;;;;;;;0.70;0.50;;;;;;;19.10;86.37;102595.53;20902702;28;20403;-80
2022/08/09 11:56:14;;;;;;;0.50;0.50;;;;;;;19.09;86.37;102607.31;20908402;28;20055;-80
2022/08/09 12:06:25;;;;;;;0.50;0.50;;;;;;;19.10;86.27;102604.47;20909389;28;20409;-81
2022/08/09 12:16:38;;;;;;;0.50;0.50;;;;;;;19.10;86.21;102588.28;20895774;28;20356;-81
2022/08/09 12:26:41;;;;;;;;;;;;;;;19.10;85.97;102584.75;20888961;28;20044;-82
2022/08/09 12:36:53;;;;;;;0.60;0.60;;;;;;;19.09;85.84;102586.56;20897101;28;20346;-81
2022/08/09 12:47:15;;;;;;;0.70;0.50;;;;;;;19.10;86.16;102587.44;20896815;28;20055;-82
2022/08/09 12:57:43;;;;;;;0.50;0.50;;;;;;;18.94;85.85;102555.19;20905866;28;20053;-82
2022/08/09 13:08:10;;;;;;;0.77;0.60;;;;;;;19.10;85.82;102573.94;20924233;28;20549;-89
2022/08/09 13:18:11;;;;;;;0.63;0.50;;;;;;;19.19;87.88;102559.81;20906481;28;20059;-86
2022/08/09 13:28:18;;;;;;;1.77;0.50;;;;;;;19.33;87.65;102560.69;20879837;28;20082;-85
2022/08/09 13:38:36;;;;;;;2.25;0.60;;;;;;;19.41;86.96;102558.31;20904350;28;20501;-82
2022/08/09 13:48:56;;;;;;;0.82;0.60;;;;;;;19.40;86.81;102570.97;20896101;28;20045;-85
2022/08/09 13:59:01;;;;;;;1.73;0.97;;;;;;;19.39;86.71;102561.16;20908203;28;20460;-82
2022/08/09 14:09:02;;;;;;;0.50;0.50;;;;;;;19.38;86.78;102563.94;20896410;28;20060;-84
2022/08/09 14:19:04;;;;;;;0.80;0.43;;;;;;;19.38;86.67;102563.94;20895584;28;20051;-83
2022/08/09 14:29:08;;;;;;;0.90;0.43;;;;;;;19.37;86.66;102551.41;20891821;28;21495;-83
2022/08/09 14:39:30;;;;;;;0.40;0.40;;;;;;;19.37;86.59;102557.69;20903927;28;20548;-85
2022/08/09 14:49:48;;;;;;;0.43;0.43;;;;;;;19.18;86.83;102503.22;20903473;28;20083;-83
2022/08/09 15:00:03;;;;;;;0.90;0.50;;;;;;;19.12;86.72;102489.16;20907128;28;20045;-83
2022/08/09 15:10:08;;;;;;;0.73;0.38;;;;;;;19.39;86.86;102530.56;20894683;28;20047;-83
2022/08/09 15:20:14;;;;;;;0.70;0.52;;;;;;;18.55;86.68;102387.78;20889609;28;20516;-83
2022/08/09 15:30:36;;;;;;;0.68;0.50;;;;;;;19.40;87.19;102513.38;20899368;28;21744;-82
2022/08/09 15:40:58;;;;;;;0.75;0.60;;;;;;;19.05;88.19;102444.66;20888617;28;20433;-82
2022/08/09 15:51:03;;;;;;;1.10;0.60;;;;;;;19.41;89.15;102491.69;20881112;28;20125;-81
2022/08/09 16:01:24;;;;;;;4.40;1.30;;;;;;;19.51;89.89;102500.00;20873071;28;20370;-81
2022/08/09 16:11:28;;;;;;;12.38;2.78;;;;;;;19.51;91.24;102491.91;20896840;28;20056;-81
2022/08/09 16:21:34;;;;;;;6.18;1.70;;;;;;;19.59;92.40;102498.59;20888231;28;20059;-81
2022/08/09 16:31:37;;;;;;;4.50;1.50;;;;;;;19.51;92.04;102489.22;20887784;28;20049;-81
2022/08/09 16:41:58;;;;;;;6.93;1.80;;;;;;;19.66;92.71;102508.00;20888034;28;21389;-82
2022/08/09 16:52:05;;;;;;;7.97;2.00;;;;;;;19.68;94.85;102512.31;20876504;28;20059;-85
2022/08/09 17:02:12;;;;;;;10.93;2.72;;;;;;;19.58;100.00;102491.47;20900019;28;22270;-81
2022/08/09 17:12:18;;;;;;;8.23;2.05;;;;;;;19.62;100.00;102512.75;20892327;28;20063;-82
2022/08/09 17:22:20;;;;;;;6.13;1.73;;;;;;;19.45;100.00;102496.88;20904600;28;20106;-80
2022/08/09 17:32:31;;;;;;;4.18;1.48;;;;;;;19.63;98.32;102540.63;20916406;28;20049;-78
2022/08/09 17:42:38;;;;;;;5.10;1.40;;;;;;;19.61;97.52;102547.97;20938526;28;20072;-79
2022/08/09 17:52:59;;;;;;;3.97;1.38;;;;;;;19.55;97.16;102543.88;20945282;28;20040;-78
2022/08/09 18:03:06;;;;;;;12.27;1.33;;;;;;;19.49;96.51;102545.19;20952391;28;20591;-78
2022/08/09 18:13:09;;;;;;;2.72;1.02;;;;;;;19.40;96.00;102540.38;20946256;28;20086;-78
2022/08/09 18:23:31;;;;;;;2.35;1.10;;;;;;;19.44;95.41;102543.75;20929764;28;20135;-78
2022/08/09 18:33:52;;;;;;;4.18;1.00;;;;;;;19.41;94.55;102542.13;20928305;28;20132;-79
2022/08/09 18:43:54;;;;;;;3.60;1.00;;;;;;;19.39;94.08;102544.94;20859362;28;20088;-78
2022/08/09 18:53:56;;;;;;;4.22;1.20;;;;;;;19.37;93.80;102529.81;20945716;28;20048;-78
2022/08/09 19:04:10;;;;;;;1.83;0.77;;;;;;;19.35;93.52;102526.34;20957115;28;20067;-78
2022/08/09 19:14:12;;;;;;;1.70;1.00;;;;;;;19.33;93.16;102549.88;20944976;28;20048;-78
2022/08/09 19:24:24;;;;;;;2.33;0.98;;;;;;;19.32;92.68;102540.94;20949236;28;20613;-79
2022/08/09 19:34:40;;;;;;;1.77;0.70;;;;;;;19.31;92.41;102555.41;20956961;28;20097;-78
2022/08/09 19:44:47;;;;;;;2.65;0.90;;;;;;;19.22;91.99;102553.31;20938924;28;20078;-78
2022/08/09 19:54:51;;;;;;;1.58;0.77;;;;;;;19.27;92.01;102579.03;20931762;28;20049;-78
2022/08/09 20:04:53;;;;;;;1.27;0.60;;;;;;;19.08;91.82;102571.31;20939547;28;20055;-78
2022/08/09 20:14:56;;;;;;;1.13;0.77;;;;;;;19.02;91.28;102558.25;20937215;28;20536;-78
2022/08/09 20:25:00;;;;;;;1.85;0.75;;;;;;;19.16;90.94;102589.72;20933368;28;20056;-78
2022/08/09 20:35:02;;;;;;;1.95;0.63;;;;;;;19.23;90.57;102603.69;20928496;28;20104;-78
2022/08/09 20:45:06;;;;;;;2.13;0.63;;;;;;;19.22;90.43;102597.41;20935220;28;21443;-79
2022/08/09 20:55:28;;;;;;;1.23;0.50;;;;;;;19.21;90.14;102602.88;20946064;28;20049;-77
2022/08/09 21:05:48;;;;;;;1.13;0.60;;;;;;;19.20;90.10;102614.66;20969558;28;20048;-79
2022/08/09 21:16:00;;;;;;;0.77;0.60;;;;;;;19.09;89.51;102588.41;20930715;28;20139;-79
2022/08/09 21:26:02;;;;;;;0.70;0.60;;;;;;;19.12;89.26;102590.91;20941861;28;20056;-80
2022/08/09 21:36:04;;;;;;;1.25;0.57;;;;;;;19.08;89.25;102582.13;20937408;28;20402;-78
2022/08/09 21:46:10;;;;;;;0.70;0.50;;;;;;;19.16;88.88;102596.94;20947984;28;20044;-79
2022/08/09 21:56:14;;;;;;;0.60;0.60;;;;;;;18.93;88.82;102550.75;20937686;28;20592;-79
2022/08/09 22:06:35;;;;;;;1.48;0.70;;;;;;;19.13;88.70;102576.44;20950849;28;20469;-79
2022/08/09 22:16:37;;;;;;;1.15;0.50;;;;;;;18.89;88.64;102533.88;20941385;28;20086;-78
2022/08/09 22:26:40;;;;;;;0.43;0.43;;;;;;;19.11;88.37;102584.63;20946770;28;20048;-78
2022/08/09 22:36:55;;;;;;;0.70;0.60;;;;;;;19.10;88.53;102584.75;20942303;28;20040;-78
2022/08/09 22:46:56;;;;;;;0.88;0.80;;;;;;;18.86;88.17;102544.88;20933536;28;20562;-78
2022/08/09 22:57:18;;;;;;;1.05;0.82;;;;;;;19.09;88.03;102577.59;20951530;28;20048;-78
2022/08/09 23:18:03;;;;;;;0.60;0.60;;;;;;;19.08;88.10;102592.06;20930480;28;20054;-78
2022/08/09 23:28:05;;;;;;;0.63;0.63;;;;;;;18.96;88.07;102575.69;20916578;28;20492;-78
2022/08/09 23:38:17;;;;;;;0.57;0.55;;;;;;;19.06;88.09;102580.53;20913729;28;20451;-78
2022/08/09 23:48:19;;;;;;;0.93;0.60;;;;;;;19.05;87.82;102576.09;20948640;28;20064;-78
2022/08/09 23:58:20;;;;;;;0.60;0.60;;;;;;;19.03;88.06;102565.38;20916335;28;20119;-78
